Time;durP1;ratioP1;P1;durP2;ratioP2;P2;SDS_P1;SDS_P2;PMS_P1;PMS_P2;Temp;Humidity;BMP_temperature;BMP_pressure;BME280_temperature;BME280_humidity;BME280_pressure;Samples;Min_cycle;Max_cycle;Signal;HPM_P1;HPM_P2
2023/05/27 00:00:58;;;;;;;3.60;2.40;;;23.30;57.40;;;;;;221475;1271;22594;-52
2023/05/27 00:06:05;;;;;;;3.70;2.30;;;23.20;57.30;;;;;;221463;1272;22515;-53
2023/05/27 00:11:09;;;;;;;4.20;2.90;;;23.20;57.30;;;;;;221766;1272;25412;-54
2023/05/27 00:16:13;;;;;;;4.10;3.00;;;23.20;57.50;;;;;;221526;1272;22517;-55
2023/05/27 00:21:18;;;;;;;3.00;2.10;;;23.20;57.50;;;;;;221476;1272;22568;-54
2023/05/27 00:26:22;;;;;;;4.10;2.80;;;23.10;57.40;;;;;;221562;1272;23892;-54
2023/05/27 00:31:27;;;;;;;3.80;2.80;;;23.10;57.50;;;;;;221499;1272;22517;-55
2023/05/27 00:36:33;;;;;;;3.90;2.60;;;23.10;57.50;;;;;;221271;1273;24344;-53
2023/05/27 00:41:43;;;;;;;3.40;2.50;;;23.10;57.60;;;;;;221326;1273;22514;-56
2023/05/27 00:46:48;;;;;;;4.70;2.50;;;23.10;57.50;;;;;;221291;1268;22621;-55
2023/05/27 00:51:53;;;;;;;3.70;2.30;;;23.10;57.50;;;;;;221569;1273;23018;-55
2023/05/27 00:56:57;;;;;;;4.10;2.20;;;23.00;57.60;;;;;;221343;1273;24277;-53
2023/05/27 01:02:01;;;;;;;3.10;2.40;;;23.00;57.60;;;;;;221421;1268;22629;-54
2023/05/27 01:07:21;;;;;;;3.70;2.60;;;23.00;57.90;;;;;;221280;1273;22625;-53
2023/05/27 01:12:50;;;;;;;4.40;2.10;;;23.00;58.10;;;;;;221438;1273;23927;-53
2023/05/27 01:17:56;;;;;;;3.90;2.90;;;23.00;57.70;;;;;;221661;1273;24777;-54
2023/05/27 01:23:01;;;;;;;4.20;2.40;;;23.00;58.10;;;;;;221275;1273;23026;-52
2023/05/27 01:28:05;;;;;;;4.30;2.50;;;23.00;57.80;;;;;;221471;1273;24142;-54
2023/05/27 01:33:16;;;;;;;5.50;2.60;;;22.90;57.70;;;;;;221508;1268;22535;-53
2023/05/27 01:38:23;;;;;;;3.10;2.30;;;22.90;58.40;;;;;;221614;1249;24232;-55
2023/05/27 01:43:28;;;;;;;2.40;2.10;;;22.90;57.70;;;;;;221528;1272;22765;-48
2023/05/27 01:48:34;;;;;;;3.00;2.00;;;22.90;57.70;;;;;;221571;1271;22511;-52
2023/05/27 01:53:38;;;;;;;5.80;2.50;;;22.90;57.80;;;;;;221682;1270;25327;-52
2023/05/27 01:58:42;;;;;;;3.70;2.30;;;22.90;57.90;;;;;;221501;1273;22515;-54
2023/05/27 02:03:47;;;;;;;3.50;2.30;;;22.90;57.80;;;;;;221386;1273;22593;-50
2023/05/27 02:08:51;;;;;;;3.40;2.10;;;22.80;57.80;;;;;;221385;1273;24190;-54
2023/05/27 02:13:59;;;;;;;4.50;2.20;;;22.80;57.90;;;;;;221289;1273;243413;-53
2023/05/27 02:19:04;;;;;;;2.60;2.20;;;22.80;57.90;;;;;;221549;1269;24746;-53
2023/05/27 02:24:08;;;;;;;3.60;2.00;;;22.80;57.90;;;;;;221562;1269;24365;-56
2023/05/27 02:29:12;;;;;;;2.90;2.40;;;22.70;57.80;;;;;;221499;1273;22510;-52
2023/05/27 02:34:16;;;;;;;3.90;2.50;;;22.70;57.90;;;;;;221310;1272;22640;-54
2023/05/27 02:39:20;;;;;;;3.80;2.10;;;22.70;57.80;;;;;;221460;1273;22539;-53
2023/05/27 02:44:25;;;;;;;3.20;2.10;;;22.70;57.80;;;;;;221265;1273;23409;-53
2023/05/27 02:49:29;;;;;;;2.60;1.90;;;22.70;57.90;;;;;;221376;1273;22554;-53
2023/05/27 02:54:33;;;;;;;3.70;2.40;;;22.60;58.20;;;;;;221394;1273;22644;-51
2023/05/27 02:59:37;;;;;;;4.20;2.00;;;22.70;57.90;;;;;;221553;1273;22622;-53
2023/05/27 03:04:42;;;;;;;2.90;2.10;;;22.60;57.80;;;;;;221472;1273;22524;-51
2023/05/27 03:09:46;;;;;;;2.70;2.00;;;22.60;57.90;;;;;;221585;1273;22510;-54
2023/05/27 03:14:51;;;;;;;2.80;2.10;;;22.60;58.00;;;;;;221220;1257;22537;-54
2023/05/27 03:19:55;;;;;;;2.20;1.80;;;22.60;57.90;;;;;;221431;1273;24247;-52
2023/05/27 03:24:59;;;;;;;2.30;1.80;;;22.60;58.00;;;;;;221554;1273;22522;-53
2023/05/27 03:30:07;;;;;;;2.70;2.20;;;22.60;57.90;;;;;;221370;1266;22727;-54
2023/05/27 03:35:14;;;;;;;3.50;2.10;;;22.60;57.80;;;;;;221802;1272;24193;-51
2023/05/27 03:40:20;;;;;;;2.10;1.90;;;22.60;57.90;;;;;;221956;1272;22507;-54
2023/05/27 03:45:25;;;;;;;3.20;1.90;;;22.50;57.90;;;;;;221829;1272;22511;-54
2023/05/27 03:50:29;;;;;;;2.60;1.90;;;22.50;57.90;;;;;;221691;1272;25433;-50
2023/05/27 03:55:33;;;;;;;3.30;2.00;;;22.50;58.10;;;;;;221916;1272;25214;-52
2023/05/27 04:00:38;;;;;;;2.00;1.80;;;22.50;58.00;;;;;;221669;1272;24219;-53
2023/05/27 04:05:43;;;;;;;2.50;1.90;;;22.50;57.90;;;;;;221492;1273;24233;-54
2023/05/27 04:10:47;;;;;;;2.50;2.00;;;22.50;58.00;;;;;;221621;1270;24170;-53
2023/05/27 04:15:51;;;;;;;2.90;2.00;;;22.50;58.00;;;;;;221488;1273;23081;-55
2023/05/27 04:20:58;;;;;;;1.90;1.70;;;22.40;58.00;;;;;;221498;1273;22724;-52
2023/05/27 04:26:04;;;;;;;2.50;2.10;;;22.50;58.40;;;;;;221599;1273;22762;-52
2023/05/27 04:31:12;;;;;;;2.60;2.20;;;22.40;58.00;;;;;;221498;1273;24199;-53
2023/05/27 04:36:27;;;;;;;2.20;2.00;;;22.40;58.00;;;;;;221586;1273;25409;-53
2023/05/27 04:41:39;;;;;;;2.20;1.80;;;22.40;58.30;;;;;;221421;1273;22990;-52
2023/05/27 04:46:44;;;;;;;2.50;2.10;;;22.40;57.90;;;;;;221382;1273;24215;-52
2023/05/27 04:51:48;;;;;;;2.00;1.80;;;22.40;57.90;;;;;;221490;1268;23020;-53
2023/05/27 04:56:55;;;;;;;2.30;1.80;;;22.40;57.90;;;;;;221150;1273;22527;-49
2023/05/27 05:02:10;;;;;;;2.00;1.80;;;22.40;57.90;;;;;;221836;1272;22624;-53
2023/05/27 05:07:24;;;;;;;3.20;1.90;;;22.40;57.90;;;;;;221487;1273;23832;-50
2023/05/27 05:12:28;;;;;;;2.20;1.80;;;22.40;57.80;;;;;;221426;1272;24527;-54
2023/05/27 05:17:32;;;;;;;1.90;1.60;;;22.40;57.90;;;;;;221812;1272;22511;-56
2023/05/27 05:22:37;;;;;;;2.00;1.60;;;22.40;57.90;;;;;;221410;1273;22541;-55
2023/05/27 05:27:42;;;;;;;2.30;1.80;;;22.40;58.20;;;;;;221448;1273;22523;-55
2023/05/27 05:32:46;;;;;;;3.00;2.20;;;22.40;58.20;;;;;;221757;1269;22540;-53
2023/05/27 05:37:51;;;;;;;1.90;1.70;;;22.40;57.80;;;;;;221699;1272;22656;-53
2023/05/27 05:42:55;;;;;;;2.70;1.70;;;22.40;57.80;;;;;;221634;1272;22634;-53
2023/05/27 05:47:59;;;;;;;3.80;2.00;;;22.40;58.10;;;;;;221790;1272;24705;-54
2023/05/27 05:53:05;;;;;;;3.40;1.50;;;22.50;57.90;;;;;;221633;1271;25230;-52
2023/05/27 05:58:10;;;;;;;2.80;1.90;;;22.50;58.40;;;;;;221715;1272;22517;-54
2023/05/27 06:03:14;;;;;;;2.70;1.70;;;22.40;58.00;;;;;;221758;1272;22612;-53
2023/05/27 06:08:27;;;;;;;1.80;1.60;;;22.40;57.90;;;;;;221740;1271;25482;-52
2023/05/27 06:14:00;;;;;;;1.80;1.60;;;22.50;57.50;;;;;;221624;1272;22643;-54
2023/05/27 06:19:04;;;;;;;2.80;1.80;;;22.50;57.60;;;;;;221858;1272;22563;-53
2023/05/27 06:24:09;;;;;;;2.40;1.70;;;22.50;57.50;;;;;;221878;1272;22512;-55
2023/05/27 06:29:18;;;;;;;2.30;1.60;;;22.50;57.40;;;;;;221767;1272;22515;-56
2023/05/27 06:34:22;;;;;;;1.70;1.60;;;22.50;57.40;;;;;;221438;1271;24382;-54
2023/05/27 06:39:27;;;;;;;1.60;1.50;;;22.60;57.20;;;;;;221262;1273;22630;-55
2023/05/27 06:44:31;;;;;;;2.30;1.90;;;22.60;57.00;;;;;;221253;1273;23511;-55
2023/05/27 06:49:40;;;;;;;3.00;1.70;;;22.60;56.90;;;;;;221271;1273;22507;-53
2023/05/27 06:54:45;;;;;;;2.70;1.70;;;22.70;56.50;;;;;;221391;1273;25239;-54
2023/05/27 07:00:09;;;;;;;1.40;1.30;;;22.70;56.40;;;;;;221589;1273;22504;-55
2023/05/27 07:05:20;;;;;;;;;;;22.80;56.30;;;;;;221837;1271;22698;-51
2023/05/27 07:10:25;;;;;;;2.70;1.90;;;22.90;56.70;;;;;;221690;1273;24171;-51
2023/05/27 07:15:31;;;;;;;2.20;1.90;;;22.80;56.30;;;;;;221778;1273;22511;-51
2023/05/27 07:20:35;;;;;;;1.70;1.60;;;22.90;56.30;;;;;;220613;1276;25291;-52
2023/05/27 07:25:41;;;;;;;1.70;1.60;;;22.90;56.30;;;;;;220634;1276;25342;-54
2023/05/27 07:30:45;;;;;;;2.30;1.80;;;22.70;56.60;;;;;;220533;1262;22643;-54
2023/05/27 07:35:51;;;;;;;1.30;1.20;;;22.70;56.60;;;;;;220805;1272;23896;-54
2023/05/27 07:40:55;;;;;;;1.50;1.30;;;22.80;56.60;;;;;;221761;1272;22732;-51
2023/05/27 07:46:00;;;;;;;1.70;1.60;;;22.80;56.60;;;;;;221686;1261;23915;-52
2023/05/27 07:51:06;;;;;;;2.50;1.30;;;22.80;56.60;;;;;;221836;1272;22610;-54
2023/05/27 07:56:10;;;;;;;1.60;1.50;;;22.80;56.60;;;;;;221835;1272;22568;-57
2023/05/27 08:01:14;;;;;;;1.60;1.30;;;22.90;56.90;;;;;;221658;1272;22513;-54
2023/05/27 08:06:22;;;;;;;2.00;1.80;;;22.80;56.60;;;;;;221687;1272;22589;-55
2023/05/27 08:12:02;;;;;;;2.10;1.40;;;22.80;56.60;;;;;;220984;1251;22874;-55
2023/05/27 08:17:07;;;;;;;3.20;2.10;;;22.80;56.80;;;;;;221746;1269;22625;-53
2023/05/27 08:22:30;;;;;;;1.50;1.40;;;22.70;56.80;;;;;;221576;1272;22515;-52
2023/05/27 08:27:57;;;;;;;1.40;1.30;;;22.80;56.80;;;;;;221495;1272;22636;-53
2023/05/27 08:33:33;;;;;;;1.70;1.40;;;22.90;56.80;;;;;;221663;1272;22689;-54
2023/05/27 08:38:38;;;;;;;2.00;1.50;;;22.90;56.70;;;;;;221698;1272;24181;-51
2023/05/27 08:43:55;;;;;;;2.00;1.80;;;22.90;56.70;;;;;;221662;1272;22693;-55
2023/05/27 08:49:19;;;;;;;1.80;1.40;;;23.00;56.40;;;;;;221709;1272;23922;-55
2023/05/27 08:54:25;;;;;;;2.50;1.50;;;23.10;56.50;;;;;;221566;1272;25393;-52
2023/05/27 08:59:31;;;;;;;1.40;1.30;;;23.00;56.60;;;;;;221286;1273;24719;-53
2023/05/27 09:04:37;;;;;;;1.60;1.50;;;23.00;56.60;;;;;;221467;1273;22822;-52
2023/05/27 09:09:42;;;;;;;1.40;1.30;;;23.00;56.50;;;;;;221488;1272;22615;-54
2023/05/27 09:14:49;;;;;;;1.40;1.30;;;23.00;56.50;;;;;;221477;1266;24269;-51
2023/05/27 09:19:54;;;;;;;1.70;1.50;;;23.10;56.60;;;;;;221440;1272;23148;-55
2023/05/27 09:25:00;;;;;;;1.40;1.30;;;23.10;56.50;;;;;;221363;1273;22516;-52
2023/05/27 09:30:09;;;;;;;1.50;1.40;;;23.10;56.50;;;;;;221515;1269;22769;-57
2023/05/27 09:35:17;;;;;;;1.80;1.30;;;23.10;56.50;;;;;;221434;1261;24221;-53
2023/05/27 09:40:21;;;;;;;1.60;1.30;;;23.20;56.30;;;;;;221465;1272;25312;-51
2023/05/27 09:45:27;;;;;;;1.80;1.20;;;23.20;56.40;;;;;;221531;1273;22636;-54
2023/05/27 09:50:33;;;;;;;1.60;1.30;;;23.20;56.50;;;;;;221421;1273;22719;-54
2023/05/27 09:55:41;;;;;;;1.40;1.30;;;23.20;56.10;;;;;;221564;1273;25615;-54
2023/05/27 10:00:47;;;;;;;1.20;1.10;;;23.30;56.00;;;;;;221442;1273;22766;-55
2023/05/27 10:05:52;;;;;;;1.50;1.40;;;23.30;56.00;;;;;;221514;1273;24283;-53
2023/05/27 10:10:56;;;;;;;1.50;1.40;;;23.30;56.00;;;;;;221573;1273;24372;-53
2023/05/27 10:16:01;;;;;;;2.10;1.20;;;23.30;56.30;;;;;;221272;1273;22486;-55
2023/05/27 10:21:06;;;;;;;1.30;1.00;;;23.40;56.30;;;;;;221409;1273;22609;-54
2023/05/27 10:26:10;;;;;;;1.30;1.20;;;23.40;56.00;;;;;;221375;1273;22545;-52
2023/05/27 10:31:16;;;;;;;1.60;1.40;;;23.40;56.20;;;;;;221437;1268;22632;-54
2023/05/27 10:36:35;;;;;;;1.20;1.10;;;23.40;56.20;;;;;;221395;1273;22577;-54
2023/05/27 10:41:50;;;;;;;1.90;1.70;;;23.40;56.10;;;;;;221324;1273;24016;-52
2023/05/27 10:47:14;;;;;;;1.20;1.10;;;23.50;55.70;;;;;;221554;1252;24185;-50
2023/05/27 10:52:18;;;;;;;2.30;1.70;;;23.50;55.60;;;;;;221273;1273;25635;-51
2023/05/27 10:57:24;;;;;;;2.60;2.00;;;23.60;55.60;;;;;;221535;1273;25559;-55
2023/05/27 11:02:31;;;;;;;1.90;1.20;;;23.60;55.60;;;;;;222018;1272;24291;-52
2023/05/27 11:07:42;;;;;;;1.50;1.40;;;23.60;55.60;;;;;;221553;1272;22646;-51
2023/05/27 11:12:48;;;;;;;1.40;1.30;;;23.60;55.60;;;;;;221357;1273;23357;-51
2023/05/27 11:17:52;;;;;;;1.30;1.20;;;23.60;55.60;;;;;;221346;1273;22646;-50
2023/05/27 11:22:56;;;;;;;1.30;1.30;;;23.60;55.50;;;;;;221792;1272;22567;-53
2023/05/27 11:28:00;;;;;;;1.20;1.10;;;23.60;55.60;;;;;;221453;1272;22654;-56
2023/05/27 11:33:05;;;;;;;1.10;1.10;;;23.60;55.50;;;;;;220899;1277;25227;-55
2023/05/27 11:38:17;;;;;;;;;;;23.70;55.60;;;;;;220916;1277;22732;-56
2023/05/27 11:43:21;;;;;;;1.30;1.20;;;23.60;55.50;;;;;;221044;1273;22562;-54
2023/05/27 11:48:25;;;;;;;1.40;1.30;;;23.70;56.00;;;;;;220822;1277;24241;-54
2023/05/27 11:53:30;;;;;;;1.50;1.30;;;23.70;55.50;;;;;;221196;1276;23717;-53
2023/05/27 11:58:36;;;;;;;1.70;1.30;;;23.70;55.50;;;;;;220965;1276;22579;-56
2023/05/27 12:03:41;;;;;;;0.90;0.90;;;23.70;55.40;;;;;;221347;1274;22645;-55
2023/05/27 12:08:46;;;;;;;1.40;1.30;;;23.70;55.40;;;;;;220952;1277;23151;-53
2023/05/27 12:13:51;;;;;;;0.90;0.90;;;23.80;55.40;;;;;;220987;1275;22661;-53
2023/05/27 12:18:55;;;;;;;1.30;1.20;;;23.80;55.50;;;;;;220841;1278;25169;-54
2023/05/27 12:23:59;;;;;;;1.40;1.30;;;23.80;55.50;;;;;;221131;1278;22527;-49
2023/05/27 12:29:04;;;;;;;1.10;1.00;;;23.80;55.70;;;;;;220754;1278;22554;-57
2023/05/27 12:34:08;;;;;;;1.40;1.10;;;23.80;55.40;;;;;;220858;1277;22661;-54
2023/05/27 12:39:13;;;;;;;1.80;1.10;;;23.80;55.40;;;;;;221137;1274;23933;-53
2023/05/27 12:44:18;;;;;;;3.10;2.60;;;23.90;55.30;;;;;;221440;1251;24276;-53
2023/05/27 12:49:24;;;;;;;1.00;0.90;;;23.90;55.30;;;;;;221609;1256;24345;-54
2023/05/27 12:54:28;;;;;;;1.00;1.00;;;23.90;55.30;;;;;;221415;1274;25410;-53
2023/05/27 12:59:33;;;;;;;1.10;1.00;;;23.90;55.60;;;;;;221576;1273;22702;-54
2023/05/27 13:04:40;;;;;;;1.20;1.10;;;23.90;55.70;;;;;;221517;1273;24788;-56
2023/05/27 13:09:44;;;;;;;1.10;0.90;;;23.90;55.50;;;;;;221551;1273;22665;-54
2023/05/27 13:14:49;;;;;;;1.10;1.00;;;23.90;55.40;;;;;;221562;1272;22604;-54
2023/05/27 13:19:53;;;;;;;1.40;1.30;;;23.90;55.30;;;;;;221940;1273;22514;-52
2023/05/27 13:24:58;;;;;;;1.30;1.20;;;23.90;55.40;;;;;;222363;1256;24248;-47
2023/05/27 13:30:03;;;;;;;1.20;1.10;;;23.90;55.30;;;;;;221593;1272;22592;-49
2023/05/27 13:35:08;;;;;;;1.00;0.90;;;23.90;55.60;;;;;;221574;1271;22626;-54
2023/05/27 13:40:12;;;;;;;1.10;1.10;;;23.90;55.70;;;;;;221801;1269;22642;-52
2023/05/27 13:45:17;;;;;;;1.20;1.00;;;23.90;55.20;;;;;;221510;1272;22519;-53
2023/05/27 13:50:21;;;;;;;0.90;0.90;;;23.90;55.70;;;;;;221761;1270;22520;-56
2023/05/27 13:55:26;;;;;;;1.20;1.00;;;23.90;55.40;;;;;;221702;1272;23914;-54
2023/05/27 14:00:30;;;;;;;1.10;1.10;;;23.90;55.50;;;;;;221478;1250;22759;-52
2023/05/27 14:05:35;;;;;;;1.10;1.00;;;23.90;55.50;;;;;;221514;1272;25387;-51
2023/05/27 14:10:39;;;;;;;1.10;1.00;;;23.90;55.70;;;;;;221295;1272;200916;-52
2023/05/27 14:15:44;;;;;;;0.90;0.90;;;23.90;55.60;;;;;;221563;1272;22546;-56
2023/05/27 14:20:49;;;;;;;0.90;0.90;;;23.80;56.00;;;;;;221685;1268;22523;-56
2023/05/27 14:25:53;;;;;;;1.30;1.20;;;23.90;55.70;;;;;;221484;1272;22526;-55
2023/05/27 14:30:59;;;;;;;1.30;0.90;;;23.90;56.00;;;;;;221537;1268;22549;-51
2023/05/27 14:36:03;;;;;;;1.00;1.00;;;23.80;55.60;;;;;;221593;1271;23152;-53
2023/05/27 14:41:07;;;;;;;1.50;1.10;;;23.80;55.70;;;;;;221630;1272;24253;-54
2023/05/27 14:46:11;;;;;;;1.20;1.10;;;23.80;55.60;;;;;;221626;1272;22537;-54
2023/05/27 14:51:16;;;;;;;0.90;0.90;;;23.90;55.70;;;;;;221497;1272;22513;-52
2023/05/27 14:56:21;;;;;;;1.40;1.30;;;23.80;56.10;;;;;;221695;1272;24259;-52
2023/05/27 15:01:25;;;;;;;1.00;1.00;;;23.80;55.70;;;;;;221597;1272;22508;-52
2023/05/27 15:06:30;;;;;;;1.20;1.10;;;23.80;55.70;;;;;;221504;1272;22615;-54
2023/05/27 15:11:36;;;;;;;1.60;0.90;;;23.90;55.80;;;;;;221840;1272;22619;-54
2023/05/27 15:16:40;;;;;;;0.80;0.80;;;23.80;56.10;;;;;;221579;1270;22579;-54
2023/05/27 15:21:44;;;;;;;0.90;0.90;;;23.80;55.80;;;;;;221517;1272;22530;-53
2023/05/27 15:26:48;;;;;;;1.00;0.90;;;23.80;55.70;;;;;;221463;1272;22517;-52
2023/05/27 15:31:52;;;;;;;0.90;0.90;;;23.80;55.90;;;;;;221534;1265;22592;-55
2023/05/27 15:36:58;;;;;;;1.20;1.00;;;23.80;55.90;;;;;;221451;1272;22532;-52
2023/05/27 15:42:02;;;;;;;1.10;1.00;;;23.80;56.00;;;;;;221450;1272;24252;-54
2023/05/27 15:47:07;;;;;;;0.90;0.90;;;23.80;56.00;;;;;;221668;1272;23146;-54
2023/05/27 15:52:12;;;;;;;1.10;1.00;;;23.80;56.00;;;;;;221509;1268;22529;-52
2023/05/27 15:57:16;;;;;;;1.10;1.00;;;23.80;56.50;;;;;;221453;1272;24189;-52
2023/05/27 16:02:20;;;;;;;0.80;0.80;;;23.70;56.20;;;;;;221256;1272;22782;-51
2023/05/27 16:07:25;;;;;;;1.20;1.10;;;23.70;56.20;;;;;;221546;1272;22775;-56
2023/05/27 16:12:29;;;;;;;1.00;0.90;;;23.70;56.20;;;;;;221367;1272;22524;-52
2023/05/27 16:17:34;;;;;;;1.00;0.90;;;23.70;56.40;;;;;;221549;1272;22514;-55
2023/05/27 16:22:39;;;;;;;0.90;0.90;;;23.70;56.20;;;;;;221637;1272;22528;-55
2023/05/27 16:27:43;;;;;;;0.90;0.90;;;23.70;56.10;;;;;;221472;1272;23891;-54
2023/05/27 16:32:49;;;;;;;1.60;1.40;;;23.70;56.10;;;;;;221710;1268;24439;-54
2023/05/27 16:37:54;;;;;;;0.80;0.80;;;23.70;56.10;;;;;;221506;1272;22531;-51
2023/05/27 16:42:59;;;;;;;0.90;0.90;;;23.70;55.90;;;;;;221647;1272;24196;-52
2023/05/27 16:48:06;;;;;;;1.00;0.90;;;23.70;55.80;;;;;;221388;1272;24212;-51
2023/05/27 16:53:10;;;;;;;1.20;1.10;;;23.60;55.70;;;;;;221563;1272;25398;-55
2023/05/27 16:58:14;;;;;;;1.00;1.00;;;23.70;55.80;;;;;;221486;1272;22514;-53
2023/05/27 17:03:18;;;;;;;0.80;0.80;;;23.70;55.70;;;;;;221473;1272;24196;-54
2023/05/27 17:08:23;;;;;;;1.00;1.00;;;23.70;55.60;;;;;;221539;1272;24337;-51
2023/05/27 17:13:27;;;;;;;1.00;0.90;;;23.70;55.60;;;;;;221552;1272;25378;-49
2023/05/27 17:18:31;;;;;;;1.00;1.00;;;23.70;55.80;;;;;;221527;1272;24249;-53
2023/05/27 17:23:36;;;;;;;0.90;0.90;;;23.60;55.60;;;;;;221510;1272;24381;-50
2023/05/27 17:28:40;;;;;;;0.80;0.80;;;23.60;55.80;;;;;;221647;1272;22541;-54
2023/05/27 17:33:44;;;;;;;1.00;0.90;;;23.60;55.60;;;;;;221156;1273;24200;-54
2023/05/27 17:38:49;;;;;;;0.80;0.80;;;23.60;55.60;;;;;;221315;1273;22681;-55
2023/05/27 17:43:53;;;;;;;1.50;0.90;;;23.60;55.70;;;;;;221395;1273;22588;-53
2023/05/27 17:48:58;;;;;;;1.10;1.00;;;23.60;55.60;;;;;;221294;1273;22519;-54
2023/05/27 17:54:02;;;;;;;0.90;0.80;;;23.60;55.90;;;;;;221556;1268;24323;-51
2023/05/27 17:59:06;;;;;;;1.00;1.00;;;23.60;56.10;;;;;;221568;1272;22567;-53
2023/05/27 18:04:10;;;;;;;0.70;0.70;;;23.50;56.80;;;;;;221453;1272;22508;-52
2023/05/27 18:09:15;;;;;;;1.20;1.10;;;23.50;56.10;;;;;;221550;1271;22567;-49
2023/05/27 18:14:19;;;;;;;1.10;1.00;;;23.50;56.10;;;;;;221584;1268;24472;-54
2023/05/27 18:19:23;;;;;;;1.10;1.00;;;23.50;56.10;;;;;;221569;1272;22504;-53
2023/05/27 18:24:27;;;;;;;1.20;1.10;;;23.50;55.70;;;;;;221723;1272;22623;-52
2023/05/27 18:29:32;;;;;;;1.00;0.90;;;23.50;56.10;;;;;;221539;1272;22648;-54
2023/05/27 18:34:36;;;;;;;1.70;1.00;;;23.50;56.00;;;;;;221767;1272;24379;-52
2023/05/27 18:39:41;;;;;;;1.20;0.80;;;23.50;56.10;;;;;;221446;1272;22619;-55
2023/05/27 18:44:45;;;;;;;1.10;1.00;;;23.40;56.00;;;;;;221391;1272;22560;-51
2023/05/27 18:49:49;;;;;;;0.90;0.80;;;23.40;56.10;;;;;;221518;1272;22644;-53
2023/05/27 18:54:53;;;;;;;0.80;0.80;;;23.40;56.60;;;;;;221591;1271;22534;-52
2023/05/27 18:59:57;;;;;;;1.20;1.10;;;23.40;56.30;;;;;;221803;1272;24211;-53
2023/05/27 19:05:02;;;;;;;0.80;0.80;;;23.30;56.20;;;;;;221805;1272;22518;-52
2023/05/27 19:10:07;;;;;;;0.70;0.70;;;23.40;55.80;;;;;;221767;1272;22507;-54
2023/05/27 19:15:11;;;;;;;1.10;0.90;;;23.30;56.20;;;;;;221850;1267;24072;-53
2023/05/27 19:20:15;;;;;;;0.90;0.90;;;23.30;56.10;;;;;;222581;1268;22646;-52
2023/05/27 19:25:20;;;;;;;0.90;0.90;;;23.30;56.20;;;;;;222659;1267;24242;-55
2023/05/27 19:30:24;;;;;;;0.80;0.80;;;23.30;56.30;;;;;;222632;1268;22508;-52
2023/05/27 19:35:28;;;;;;;0.80;0.80;;;23.30;56.30;;;;;;222431;1268;22512;-54
2023/05/27 19:40:33;;;;;;;0.80;0.70;;;23.30;55.90;;;;;;222594;1263;22869;-53
2023/05/27 19:45:38;;;;;;;0.80;0.80;;;23.30;56.90;;;;;;222515;1268;24356;-53
2023/05/27 19:50:42;;;;;;;0.90;0.90;;;23.30;56.30;;;;;;222435;1268;22541;-51
2023/05/27 19:55:47;;;;;;;1.10;0.90;;;23.20;56.80;;;;;;222454;1268;22520;-53
2023/05/27 20:00:51;;;;;;;1.90;1.10;;;23.20;56.30;;;;;;222259;1269;22548;-54
2023/05/27 20:05:59;;;;;;;1.00;0.80;;;23.20;56.30;;;;;;222379;1269;22526;-53
2023/05/27 20:11:03;;;;;;;1.20;1.00;;;23.20;56.70;;;;;;222338;1269;22770;-51
2023/05/27 20:16:07;;;;;;;1.00;0.90;;;23.20;56.40;;;;;;222151;1269;22613;-57
2023/05/27 20:21:12;;;;;;;0.90;0.90;;;23.20;56.40;;;;;;222339;1269;23945;-55
2023/05/27 20:26:16;;;;;;;0.80;0.80;;;23.20;56.40;;;;;;222097;1269;22507;-55
2023/05/27 20:31:22;;;;;;;0.90;0.90;;;23.10;56.30;;;;;;222542;1268;25374;-52
2023/05/27 20:36:26;;;;;;;1.00;0.90;;;23.10;56.40;;;;;;222924;1268;22575;-55
2023/05/27 20:41:30;;;;;;;1.30;1.20;;;23.10;56.30;;;;;;222586;1268;22498;-54
2023/05/27 20:46:35;;;;;;;1.30;1.20;;;23.10;56.30;;;;;;222590;1265;22521;-54
2023/05/27 20:51:40;;;;;;;1.10;1.10;;;23.10;56.30;;;;;;222494;1267;24173;-56
2023/05/27 20:56:44;;;;;;;0.90;0.90;;;23.10;56.40;;;;;;222586;1268;23238;-53
2023/05/27 21:01:48;;;;;;;1.30;1.20;;;23.10;56.40;;;;;;222560;1268;25378;-55
2023/05/27 21:06:52;;;;;;;1.20;1.10;;;23.10;56.50;;;;;;222447;1268;23921;-51
2023/05/27 21:11:57;;;;;;;1.20;1.10;;;23.10;56.40;;;;;;222707;1268;22521;-54
2023/05/27 21:17:03;;;;;;;1.30;1.20;;;23.00;56.30;;;;;;222399;1268;22852;-54
2023/05/27 21:22:09;;;;;;;0.80;0.80;;;23.10;56.50;;;;;;222776;1264;22508;-53
2023/05/27 21:27:14;;;;;;;1.50;1.10;;;23.00;56.80;;;;;;222411;1268;24328;-54
2023/05/27 21:32:18;;;;;;;1.40;1.30;;;23.00;56.40;;;;;;222265;1265;22529;-54
2023/05/27 21:37:23;;;;;;;1.10;1.00;;;23.00;56.40;;;;;;222210;1269;22606;-52
2023/05/27 21:42:27;;;;;;;1.50;1.40;;;23.00;56.40;;;;;;221992;1269;22641;-55
2023/05/27 21:47:31;;;;;;;1.40;1.30;;;23.00;56.40;;;;;;222238;1246;23918;-56
2023/05/27 21:52:35;;;;;;;1.50;1.10;;;23.00;56.60;;;;;;222106;1269;23939;-54
2023/05/27 21:57:39;;;;;;;1.60;1.50;;;23.00;56.30;;;;;;222287;1269;25466;-52
2023/05/27 22:02:44;;;;;;;1.60;1.50;;;23.00;56.50;;;;;;222137;1268;22535;-54
2023/05/27 22:07:49;;;;;;;1.00;1.00;;;23.00;56.50;;;;;;222260;1269;22788;-56
2023/05/27 22:12:53;;;;;;;1.50;1.40;;;23.00;56.50;;;;;;222120;1269;23104;-57
2023/05/27 22:17:57;;;;;;;1.20;1.10;;;23.00;56.40;;;;;;222278;1269;24379;-55
2023/05/27 22:23:02;;;;;;;1.30;1.20;;;23.00;56.30;;;;;;222136;1269;23886;-54
2023/05/27 22:28:06;;;;;;;1.30;1.10;;;22.90;56.30;;;;;;222080;1269;25224;-55
2023/05/27 22:33:10;;;;;;;1.40;1.30;;;23.00;56.50;;;;;;222162;1267;22659;-53
2023/05/27 22:38:14;;;;;;;1.40;1.30;;;22.90;56.40;;;;;;222597;1268;24088;-54
2023/05/27 22:43:19;;;;;;;1.20;1.10;;;22.90;56.40;;;;;;222559;1268;23924;-52
2023/05/27 22:48:24;;;;;;;1.10;1.00;;;22.90;56.40;;;;;;222314;1268;22606;-58
2023/05/27 22:53:28;;;;;;;1.20;1.10;;;22.90;56.40;;;;;;222583;1268;22636;-55
2023/05/27 22:58:32;;;;;;;1.20;1.10;;;22.90;56.40;;;;;;222727;1266;22587;-54
2023/05/27 23:03:36;;;;;;;1.20;1.10;;;22.90;56.50;;;;;;222548;1268;22519;-53
2023/05/27 23:08:41;;;;;;;1.30;1.20;;;22.90;56.50;;;;;;222427;1268;22663;-54
2023/05/27 23:13:45;;;;;;;1.50;1.40;;;22.90;56.80;;;;;;222438;1268;22592;-57
2023/05/27 23:18:49;;;;;;;1.30;1.20;;;22.90;56.40;;;;;;222448;1268;24184;-54
2023/05/27 23:23:54;;;;;;;1.10;1.10;;;22.90;56.30;;;;;;222676;1267;24352;-55
2023/05/27 23:28:58;;;;;;;1.40;1.30;;;22.80;56.40;;;;;;222648;1268;22526;-52
2023/05/27 23:34:02;;;;;;;1.40;1.20;;;22.70;56.50;;;;;;222457;1268;22532;-53
2023/05/27 23:39:06;;;;;;;1.40;1.30;;;22.70;56.60;;;;;;222633;1267;22531;-55
2023/05/27 23:44:12;;;;;;;1.20;1.10;;;22.70;56.60;;;;;;222512;1247;22672;-54
2023/05/27 23:49:17;;;;;;;2.20;1.60;;;22.70;56.60;;;;;;222592;1265;24216;-50
2023/05/27 23:54:21;;;;;;;1.20;1.10;;;22.60;56.60;;;;;;222627;1268;22511;-56
2023/05/27 23:59:25;;;;;;;1.50;1.30;;;22.60;56.60;;;;;;222747;1268;22508;-56
